createdAt,value
2019-02-16T00:00:51.817Z,4.90
2019-02-16T00:03:21.283Z,4.60
2019-02-16T00:05:50.724Z,4.40
2019-02-16T00:08:21.758Z,4.30
2019-02-16T00:10:51.330Z,4.30
2019-02-16T00:13:20.870Z,4.40
2019-02-16T00:15:50.240Z,4.40
2019-02-16T00:18:19.651Z,4.40
2019-02-16T00:20:49.091Z,4.50
2019-02-16T00:23:18.520Z,4.50
2019-02-16T00:25:47.885Z,4.50
2019-02-16T00:28:17.283Z,4.60
2019-02-16T00:30:46.651Z,4.70
2019-02-16T00:33:16.137Z,4.80
2019-02-16T00:35:45.504Z,4.90
2019-02-16T00:38:14.983Z,5.00
2019-02-16T00:40:44.345Z,5.00
2019-02-16T00:43:13.813Z,5.10
2019-02-16T00:45:44.961Z,5.20
2019-02-16T00:48:14.359Z,5.20
2019-02-16T00:50:43.840Z,5.20
2019-02-16T00:53:14.937Z,5.00
2019-02-16T00:55:44.369Z,5.00
2019-02-16T00:58:13.769Z,5.00
2019-02-16T01:00:43.255Z,5.00
2019-02-16T01:03:12.755Z,5.00
2019-02-16T01:05:42.222Z,5.00
2019-02-16T01:08:11.586Z,5.00
2019-02-16T01:10:41.234Z,5.00
2019-02-16T01:13:10.675Z,5.00
2019-02-16T01:15:40.165Z,5.00
2019-02-16T01:18:09.609Z,4.90
2019-02-16T01:20:39.080Z,4.90
2019-02-16T01:23:08.561Z,4.80
2019-02-16T01:25:38.182Z,4.70
2019-02-16T01:28:07.624Z,4.60
2019-02-16T01:30:37.067Z,4.60
2019-02-16T01:33:06.613Z,4.70
2019-02-16T01:35:36.274Z,4.70
2019-02-16T01:38:06.249Z,4.70
2019-02-16T01:40:35.748Z,4.70
2019-02-16T01:43:05.211Z,4.70
2019-02-16T01:45:34.699Z,4.70
2019-02-16T01:48:04.172Z,4.70
2019-02-16T01:50:33.582Z,4.70
2019-02-16T01:53:03.177Z,4.70
2019-02-16T01:55:32.674Z,4.60
2019-02-16T01:58:02.257Z,4.60
2019-02-16T02:00:45.292Z,4.50
2019-02-16T02:03:15.025Z,4.50
2019-02-16T02:05:44.601Z,4.50
2019-02-16T02:08:14.209Z,4.50
2019-02-16T02:10:46.456Z,4.50
2019-02-16T02:13:15.965Z,4.40
2019-02-16T02:15:45.559Z,4.40
2019-02-16T02:18:15.047Z,4.40
2019-02-16T02:20:44.654Z,4.30
2019-02-16T02:23:14.124Z,4.30
2019-02-16T02:25:43.683Z,4.30
2019-02-16T02:28:13.326Z,4.20
2019-02-16T02:30:42.887Z,4.20
2019-02-16T02:33:12.438Z,4.20
2019-02-16T02:35:41.939Z,4.10
2019-02-16T02:38:11.504Z,4.00
2019-02-16T02:40:41.018Z,3.80
2019-02-16T02:43:10.491Z,3.70
2019-02-16T02:45:39.993Z,3.60
2019-02-16T02:48:09.462Z,3.50
2019-02-16T02:50:40.493Z,3.60
2019-02-16T02:53:09.966Z,3.60
2019-02-16T02:55:39.459Z,3.70
2019-02-16T02:58:08.933Z,3.60
2019-02-16T03:00:38.513Z,3.70
2019-02-16T03:03:07.991Z,3.70
2019-02-16T03:05:37.508Z,3.70
2019-02-16T03:08:06.972Z,3.70
2019-02-16T03:10:36.562Z,3.80
2019-02-16T03:13:06.019Z,3.80
2019-02-16T03:15:35.633Z,3.80
2019-02-16T03:18:05.240Z,3.80
2019-02-16T03:20:34.751Z,3.80
2019-02-16T03:23:14.943Z,3.70
2019-02-16T03:25:50.497Z,3.70
2019-02-16T03:28:37.962Z,3.60
2019-02-16T03:31:31.737Z,3.50
2019-02-16T03:34:16.641Z,3.50
2019-02-16T03:37:05.553Z,3.50
2019-02-16T03:39:36.562Z,3.60
2019-02-16T03:42:06.085Z,3.60
2019-02-16T03:44:35.644Z,3.60
2019-02-16T03:47:05.215Z,3.70
2019-02-16T03:49:34.677Z,3.80
2019-02-16T03:52:13.198Z,3.90
2019-02-16T03:54:35.486Z,3.80
2019-02-16T03:57:05.160Z,3.80
2019-02-16T03:59:34.622Z,3.70
2019-02-16T04:02:04.207Z,3.60
2019-02-16T04:04:33.765Z,3.50
2019-02-16T04:07:03.265Z,3.40
2019-02-16T04:09:32.733Z,3.30
2019-02-16T04:12:02.225Z,3.30
2019-02-16T04:14:31.708Z,3.30
2019-02-16T04:17:01.216Z,3.30
2019-02-16T04:19:30.813Z,3.30
2019-02-16T04:22:00.220Z,3.40
2019-02-16T04:24:29.648Z,3.40
2019-02-16T04:26:59.115Z,3.30
2019-02-16T04:29:28.630Z,3.20
2019-02-16T04:31:58.105Z,3.30
2019-02-16T04:34:27.541Z,3.20
2019-02-16T04:36:56.944Z,3.30
2019-02-16T04:39:26.385Z,3.20
2019-02-16T04:41:55.768Z,3.20
2019-02-16T04:44:25.283Z,3.20
2019-02-16T04:46:54.687Z,3.20
2019-02-16T04:49:24.068Z,3.30
2019-02-16T04:51:53.558Z,3.30
2019-02-16T04:54:23.076Z,3.10
2019-02-16T04:56:52.488Z,3.20
2019-02-16T04:59:21.852Z,3.20
2019-02-16T05:01:51.600Z,3.20
2019-02-16T05:04:21.032Z,3.10
2019-02-16T05:06:50.433Z,3.10
2019-02-16T05:09:19.796Z,3.10
2019-02-16T05:11:49.210Z,3.10
2019-02-16T05:14:18.576Z,3.10
2019-02-16T05:16:48.119Z,3.20
2019-02-16T05:19:17.478Z,3.30
2019-02-16T05:21:47.096Z,3.30
2019-02-16T05:24:16.609Z,3.40
2019-02-16T05:26:46.085Z,3.30
2019-02-16T05:29:15.460Z,3.20
2019-02-16T05:31:45.010Z,3.20
2019-02-16T05:34:14.453Z,3.10
2019-02-16T05:36:44.313Z,3.10
2019-02-16T05:39:13.673Z,3.10
2019-02-16T05:41:43.084Z,3.10
2019-02-16T05:44:12.450Z,3.30
2019-02-16T05:46:41.842Z,3.30
2019-02-16T05:49:11.386Z,3.30
2019-02-16T05:51:40.954Z,3.30
2019-02-16T05:54:29.805Z,3.20
2019-02-16T05:57:12.586Z,3.20
2019-02-16T05:59:55.181Z,3.20
2019-02-16T06:02:26.185Z,3.20
2019-02-16T06:04:55.700Z,3.10
2019-02-16T06:07:25.232Z,3.00
2019-02-16T06:09:55.691Z,3.00
2019-02-16T06:12:25.532Z,3.00
2019-02-16T06:14:54.955Z,2.90
2019-02-16T06:17:26.583Z,2.80
2019-02-16T06:19:57.777Z,2.70
2019-02-16T06:22:27.176Z,2.70
2019-02-16T06:24:56.612Z,2.90
2019-02-16T06:27:25.971Z,2.90
2019-02-16T06:29:55.518Z,2.90
2019-02-16T06:32:25.020Z,3.00
2019-02-16T06:34:56.088Z,3.00
2019-02-16T06:37:25.724Z,2.90
2019-02-16T06:39:55.151Z,3.00
2019-02-16T06:42:24.600Z,3.00
2019-02-16T06:44:54.171Z,3.00
2019-02-16T06:47:24.119Z,3.00
2019-02-16T06:49:53.621Z,3.00
2019-02-16T06:52:23.082Z,3.00
2019-02-16T06:54:52.559Z,3.00
2019-02-16T06:57:23.635Z,3.00
2019-02-16T06:59:53.035Z,3.00
2019-02-16T07:02:23.994Z,3.00
2019-02-16T07:04:53.470Z,3.00
2019-02-16T07:07:22.985Z,3.00
2019-02-16T07:09:52.464Z,3.00
2019-02-16T07:12:21.832Z,3.10
2019-02-16T07:14:51.380Z,3.20
2019-02-16T07:17:27.975Z,3.20
2019-02-16T07:19:57.490Z,3.30
2019-02-16T07:22:26.933Z,3.40
2019-02-16T07:24:56.545Z,3.50
2019-02-16T07:27:27.657Z,3.50
2019-02-16T07:29:57.061Z,3.50
2019-02-16T07:32:26.432Z,3.60
2019-02-16T07:34:55.977Z,3.80
2019-02-16T07:37:25.489Z,4.00
2019-02-16T07:39:55.083Z,4.20
2019-02-16T07:42:24.720Z,4.30
2019-02-16T07:44:59.064Z,4.40
2019-02-16T07:47:30.082Z,4.40
2019-02-16T07:50:01.141Z,4.40
2019-02-16T07:52:48.626Z,4.50
2019-02-16T07:55:22.638Z,4.70
2019-02-16T07:57:53.683Z,4.90
2019-02-16T08:00:24.886Z,5.00
2019-02-16T08:03:12.459Z,5.10
2019-02-16T08:05:43.570Z,5.30
2019-02-16T08:08:14.685Z,5.70
2019-02-16T08:10:48.751Z,5.80
2019-02-16T08:13:39.064Z,5.90
2019-02-16T08:16:32.777Z,6.00
2019-02-16T08:19:19.198Z,6.00
2019-02-16T08:22:02.284Z,6.00
2019-02-16T08:24:36.136Z,5.80
2019-02-16T08:27:23.404Z,5.80
2019-02-16T08:30:00.003Z,6.00
2019-02-16T08:35:33.100Z,6.70
2019-02-16T08:38:22.416Z,7.20
2019-02-16T08:43:38.493Z,8.90
2019-02-16T08:46:09.774Z,9.70
2019-02-16T08:48:40.949Z,10.20
2019-02-16T08:51:18.346Z,10.60
2019-02-16T08:53:50.179Z,11.10
2019-02-16T08:56:21.601Z,11.70
2019-02-16T08:59:07.765Z,12.30
2019-02-16T09:01:54.091Z,12.70
2019-02-16T09:04:25.132Z,13.00
2019-02-16T09:07:13.042Z,13.50
2019-02-16T09:09:46.801Z,13.50
2019-02-16T09:12:34.331Z,13.80
2019-02-16T09:15:06.428Z,14.00
2019-02-16T09:17:40.611Z,14.00
2019-02-16T09:20:14.472Z,14.20
2019-02-16T09:22:48.323Z,14.50
2019-02-16T09:25:19.384Z,14.70
2019-02-16T09:27:59.555Z,14.80
2019-02-16T09:30:39.747Z,15.10
2019-02-16T09:33:13.516Z,15.30
2019-02-16T09:35:47.225Z,15.80
2019-02-16T09:38:18.402Z,16.20
2019-02-16T09:41:05.476Z,15.90
2019-02-16T09:43:36.583Z,16.10
2019-02-16T09:46:24.395Z,16.20
2019-02-16T15:26:01.135Z,11.70
2019-02-16T15:28:28.332Z,11.40
2019-02-16T15:30:57.735Z,11.30
2019-02-16T15:33:27.277Z,11.10
2019-02-16T15:35:56.866Z,11.10
2019-02-16T15:38:26.414Z,11.00
2019-02-16T15:40:55.834Z,11.00
2019-02-16T15:43:25.675Z,11.00
2019-02-16T15:45:56.191Z,11.00
2019-02-16T15:48:25.639Z,11.00
2019-02-16T15:50:55.018Z,11.00
2019-02-16T15:53:24.434Z,11.00
2019-02-16T15:55:53.870Z,11.00
2019-02-16T15:58:23.555Z,11.00
2019-02-16T16:00:53.085Z,10.90
2019-02-16T16:03:22.563Z,10.90
2019-02-16T16:05:52.053Z,10.90
2019-02-16T16:08:26.007Z,10.80
2019-02-16T16:11:05.884Z,10.80
2019-02-16T16:13:39.640Z,10.70
2019-02-16T16:16:10.678Z,10.60
2019-02-16T16:18:44.660Z,10.60
2019-02-16T16:21:30.788Z,10.50
2019-02-16T16:24:04.886Z,10.40
2019-02-16T16:26:54.229Z,10.40
2019-02-16T16:29:31.191Z,10.30
2019-02-16T16:32:02.342Z,10.30
2019-02-16T16:34:52.104Z,10.30
2019-02-16T16:37:32.152Z,10.30
2019-02-16T16:40:06.450Z,10.20
2019-02-16T16:45:32.567Z,10.20
2019-02-16T16:48:06.885Z,10.10
2019-02-16T16:50:54.673Z,10.00
2019-02-16T16:53:38.788Z,10.00
2019-02-16T16:56:16.310Z,9.90
2019-02-16T16:58:56.159Z,9.90
2019-02-16T17:01:29.887Z,9.70
2019-02-16T17:04:01.032Z,9.60
2019-02-16T17:06:38.263Z,9.60
2019-02-16T17:09:20.775Z,9.50
2019-02-16T17:11:54.467Z,9.50
2019-02-16T17:17:20.519Z,9.50
2019-02-16T17:19:51.619Z,9.50
2019-02-16T17:22:25.208Z,9.60
2019-02-16T17:25:09.241Z,9.60
2019-02-16T17:30:36.299Z,9.70
2019-02-16T17:36:05.977Z,9.90
2019-02-16T17:38:55.774Z,9.80
2019-02-16T17:41:33.293Z,9.90
2019-02-16T17:44:04.357Z,9.90
2019-02-16T17:46:41.140Z,9.90
2019-02-16T17:49:12.272Z,9.90
2019-02-16T17:51:46.246Z,9.80
2019-02-16T17:54:26.146Z,9.90
2019-02-16T17:56:59.919Z,9.90
2019-02-16T17:59:42.634Z,9.80
2019-02-16T18:02:16.507Z,9.80
2019-02-16T18:04:50.522Z,9.90
2019-02-16T18:07:24.312Z,9.90
2019-02-16T18:10:04.205Z,9.90
2019-02-16T18:12:35.455Z,9.90
2019-02-16T18:15:14.952Z,10.00
2019-02-16T18:18:03.088Z,10.00
2019-02-16T18:20:34.175Z,10.10
2019-02-16T18:23:05.216Z,10.10
2019-02-16T18:28:32.029Z,10.10
2019-02-16T18:31:19.344Z,10.10
2019-02-16T18:33:50.454Z,10.10
2019-02-16T18:36:27.811Z,10.10
2019-02-16T18:39:17.047Z,10.10
2019-02-16T18:41:51.100Z,10.10
2019-02-16T18:44:22.272Z,10.10
2019-02-16T18:47:02.497Z,10.10
2019-02-16T18:49:33.535Z,10.00
2019-02-16T18:52:20.136Z,10.00
2019-02-16T18:54:53.701Z,10.00
2019-02-16T18:57:24.801Z,10.00
2019-02-16T19:00:12.447Z,10.00
2019-02-16T19:02:46.833Z,10.00
2019-02-16T19:05:17.937Z,9.90
2019-02-16T19:07:54.968Z,9.90
2019-02-16T19:10:42.052Z,9.90
2019-02-16T19:13:13.288Z,9.80
2019-02-16T19:15:53.470Z,9.80
2019-02-16T19:18:27.329Z,9.80
2019-02-16T19:20:58.416Z,9.80
2019-02-16T19:23:47.306Z,9.80
2019-02-16T19:26:21.412Z,9.80
2019-02-16T19:29:01.434Z,9.80
2019-02-16T19:31:32.647Z,9.80
2019-02-16T19:34:09.647Z,9.80
2019-02-16T19:39:26.275Z,9.80
2019-02-16T19:41:59.779Z,9.80
2019-02-16T19:44:32.689Z,9.80
2019-02-16T19:47:19.295Z,9.80
2019-02-16T19:50:05.667Z,9.80
2019-02-16T19:52:54.733Z,9.80
2019-02-16T19:58:14.321Z,9.80
2019-02-16T20:00:45.506Z,9.80
2019-02-16T20:03:19.956Z,9.70
2019-02-16T20:05:51.098Z,9.80
2019-02-16T20:08:34.283Z,9.80
2019-02-16T20:11:12.309Z,9.90
2019-02-16T20:13:59.615Z,9.80
2019-02-16T20:16:47.344Z,9.90
2019-02-16T20:19:18.356Z,9.90
2019-02-16T20:21:52.332Z,10.00
2019-02-16T20:24:26.233Z,10.00
2019-02-16T20:27:13.578Z,9.90
2019-02-16T20:29:44.662Z,9.90
2019-02-16T20:32:15.877Z,9.90
2019-02-16T20:34:47.058Z,9.90
2019-02-16T20:37:34.666Z,9.90
2019-02-16T20:40:16.011Z,9.90
2019-02-16T20:43:06.753Z,9.90
2019-02-16T20:45:40.333Z,9.90
2019-02-16T20:48:11.383Z,9.90
2019-02-16T20:50:54.646Z,9.90
2019-02-16T20:53:44.013Z,10.00
2019-02-16T20:56:27.412Z,10.10
2019-02-16T20:59:07.256Z,10.10
2019-02-16T21:07:25.929Z,10.00
2019-02-16T21:09:56.974Z,10.00
2019-02-16T21:12:44.360Z,10.00
2019-02-16T21:15:18.246Z,10.00
2019-02-16T21:17:52.134Z,9.90
2019-02-16T21:20:29.434Z,9.90
2019-02-16T21:25:47.225Z,9.80
2019-02-16T21:28:21.128Z,9.80
2019-02-16T21:31:01.063Z,9.70
2019-02-16T21:33:43.813Z,9.70
2019-02-16T21:36:26.839Z,9.70
2019-02-16T21:39:03.297Z,9.60
2019-02-16T21:41:36.659Z,9.60
2019-02-16T21:44:18.239Z,9.60
2019-02-16T21:47:04.356Z,9.70
2019-02-16T21:49:35.596Z,9.70
2019-02-16T21:52:09.569Z,9.70
2019-02-16T21:54:43.324Z,9.70
2019-02-16T21:57:26.356Z,9.80
2019-02-16T22:00:03.136Z,9.80
2019-02-16T22:02:36.664Z,9.80
2019-02-16T22:05:08.731Z,9.70
2019-02-16T22:07:45.501Z,9.60
2019-02-16T22:10:22.155Z,9.60
2019-02-16T22:12:53.164Z,9.50
2019-02-16T22:15:22.646Z,9.60
2019-02-16T22:17:52.070Z,9.70
2019-02-16T22:20:21.467Z,9.70
2019-02-16T22:22:50.819Z,9.60
2019-02-16T22:25:21.420Z,9.50
2019-02-16T22:27:51.238Z,9.40
2019-02-16T22:30:22.170Z,9.50
2019-02-16T22:32:51.628Z,9.50
2019-02-16T22:35:21.198Z,9.40
2019-02-16T22:37:50.676Z,9.30
2019-02-16T22:40:20.132Z,9.10
2019-02-16T22:42:49.543Z,9.00
2019-02-16T22:45:18.964Z,8.80
2019-02-16T22:47:48.359Z,8.80
2019-02-16T22:50:17.763Z,8.70
2019-02-16T22:52:48.747Z,8.60
2019-02-16T22:55:18.224Z,8.50
2019-02-16T22:57:47.738Z,8.40
2019-02-16T23:00:26.786Z,8.40
2019-02-16T23:02:56.287Z,8.40
2019-02-16T23:05:25.823Z,8.30
2019-02-16T23:07:55.281Z,8.30
2019-02-16T23:10:25.134Z,8.20
2019-02-16T23:12:54.588Z,8.20
2019-02-16T23:15:24.056Z,8.20
2019-02-16T23:17:53.601Z,8.20
2019-02-16T23:20:23.199Z,8.20
2019-02-16T23:22:52.593Z,8.10
2019-02-16T23:25:22.089Z,8.10
2019-02-16T23:27:51.698Z,8.00
2019-02-16T23:30:21.158Z,7.90
2019-02-16T23:32:50.675Z,7.80
2019-02-16T23:35:20.283Z,7.70
2019-02-16T23:37:49.819Z,7.60
2019-02-16T23:40:19.167Z,7.60
2019-02-16T23:42:48.680Z,7.60
2019-02-16T23:45:18.172Z,7.50
2019-02-16T23:47:47.632Z,7.60
2019-02-16T23:50:17.111Z,7.50
2019-02-16T23:52:46.500Z,7.50
2019-02-16T23:55:16.096Z,7.40
2019-02-16T23:57:45.578Z,7.20
